sensor_id;sensor_type;location;lat;lon;timestamp;pressure;altitude;pressure_sealevel;temperature;humidity
61710;BME280;47633;51.494;5.386;2023-10-13T00:01:23;101144.19;;;20.98;63.38
61710;BME280;47633;51.494;5.386;2023-10-13T00:03:49;101144.34;;;20.97;63.08
61710;BME280;47633;51.494;5.386;2023-10-13T00:06:16;101148.63;;;20.98;63.03
61710;BME280;47633;51.494;5.386;2023-10-13T00:08:43;101148.63;;;20.98;63.22
61710;BME280;47633;51.494;5.386;2023-10-13T00:11:12;101138.31;;;20.95;63.29
61710;BME280;47633;51.494;5.386;2023-10-13T00:13:38;101136.53;;;20.95;62.98
61710;BME280;47633;51.494;5.386;2023-10-13T00:16:20;101133.88;;;20.95;63.21
61710;BME280;47633;51.494;5.386;2023-10-13T00:18:56;101133.00;;;20.95;63.26
61710;BME280;47633;51.494;5.386;2023-10-13T00:21:23;101132.88;;;20.96;62.95
61710;BME280;47633;51.494;5.386;2023-10-13T00:23:59;101121.44;;;20.96;63.11
61710;BME280;47633;51.494;5.386;2023-10-13T00:26:31;101124.09;;;20.96;63.12
61710;BME280;47633;51.494;5.386;2023-10-13T00:29:02;101129.41;;;20.96;63.08
61710;BME280;47633;51.494;5.386;2023-10-13T00:31:38;101122.56;;;20.93;62.88
61710;BME280;47633;51.494;5.386;2023-10-13T00:34:06;101122.41;;;20.95;63.18
61710;BME280;47633;51.494;5.386;2023-10-13T00:36:41;101115.31;;;20.95;63.04
61710;BME280;47633;51.494;5.386;2023-10-13T00:39:45;101112.53;;;20.97;63.16
61710;BME280;47633;51.494;5.386;2023-10-13T00:42:12;101107.50;;;20.94;63.42
61710;BME280;47633;51.494;5.386;2023-10-13T00:44:49;101108.47;;;20.93;62.92
61710;BME280;47633;51.494;5.386;2023-10-13T00:47:16;101100.53;;;20.93;63.17
61710;BME280;47633;51.494;5.386;2023-10-13T00:50:06;101102.22;;;20.94;63.20
61710;BME280;47633;51.494;5.386;2023-10-13T00:52:37;101100.53;;;20.93;63.22
61710;BME280;47633;51.494;5.386;2023-10-13T00:55:03;101095.22;;;20.93;63.21
61710;BME280;47633;51.494;5.386;2023-10-13T00:57:29;101092.72;;;20.91;62.96
61710;BME280;47633;51.494;5.386;2023-10-13T00:59:56;101089.09;;;20.92;63.23
61710;BME280;47633;51.494;5.386;2023-10-13T01:02:25;101078.66;;;20.91;62.82
61710;BME280;47633;51.494;5.386;2023-10-13T01:05:06;101083.81;;;20.92;63.36
61710;BME280;47633;51.494;5.386;2023-10-13T01:07:45;101085.59;;;20.92;63.10
61710;BME280;47633;51.494;5.386;2023-10-13T01:10:15;101081.16;;;20.92;62.77
61710;BME280;47633;51.494;5.386;2023-10-13T01:12:41;101076.00;;;20.91;63.23
61710;BME280;47633;51.494;5.386;2023-10-13T01:15:12;101082.13;;;20.91;63.21
61710;BME280;47633;51.494;5.386;2023-10-13T01:17:42;101067.06;;;20.92;62.85
61710;BME280;47633;51.494;5.386;2023-10-13T01:20:11;101063.72;;;20.90;63.07
61710;BME280;47633;51.494;5.386;2023-10-13T01:22:43;101056.59;;;20.90;63.17
61710;BME280;47633;51.494;5.386;2023-10-13T01:25:09;101053.13;;;20.90;63.06
61710;BME280;47633;51.494;5.386;2023-10-13T01:27:38;101046.00;;;20.90;63.08
61710;BME280;47633;51.494;5.386;2023-10-13T01:30:04;101038.22;;;20.89;63.22
61710;BME280;47633;51.494;5.386;2023-10-13T01:32:50;101044.22;;;20.91;63.01
61710;BME280;47633;51.494;5.386;2023-10-13T01:35:17;101041.56;;;20.91;62.88
61710;BME280;47633;51.494;5.386;2023-10-13T01:37:52;101029.28;;;20.90;62.86
61710;BME280;47633;51.494;5.386;2023-10-13T01:40:17;101024.97;;;20.89;63.13
61710;BME280;47633;51.494;5.386;2023-10-13T01:42:46;101023.97;;;20.90;63.22
61710;BME280;47633;51.494;5.386;2023-10-13T01:45:11;101014.50;;;20.87;63.09
61710;BME280;47633;51.494;5.386;2023-10-13T01:47:38;101011.88;;;20.87;62.99
61710;BME280;47633;51.494;5.386;2023-10-13T01:50:05;101007.25;;;20.89;63.35
61710;BME280;47633;51.494;5.386;2023-10-13T01:52:44;101007.53;;;20.86;63.35
61710;BME280;47633;51.494;5.386;2023-10-13T01:55:09;101004.59;;;20.89;63.05
61710;BME280;47633;51.494;5.386;2023-10-13T01:57:36;101002.09;;;20.88;62.97
61710;BME280;47633;51.494;5.386;2023-10-13T02:00:02;100994.16;;;20.88;62.96
61710;BME280;47633;51.494;5.386;2023-10-13T02:02:43;100988.84;;;20.88;63.11
61710;BME280;47633;51.494;5.386;2023-10-13T02:05:10;100993.31;;;20.87;63.06
61710;BME280;47633;51.494;5.386;2023-10-13T02:07:35;100981.88;;;20.87;62.83
61710;BME280;47633;51.494;5.386;2023-10-13T02:10:04;100987.88;;;20.89;63.32
61710;BME280;47633;51.494;5.386;2023-10-13T02:12:31;100983.56;;;20.88;62.82
61710;BME280;47633;51.494;5.386;2023-10-13T02:15:09;100977.44;;;20.87;63.39
61710;BME280;47633;51.494;5.386;2023-10-13T02:17:37;100977.56;;;20.86;62.89
61710;BME280;47633;51.494;5.386;2023-10-13T02:20:06;100973.94;;;20.87;62.89
61710;BME280;47633;51.494;5.386;2023-10-13T02:22:41;100980.09;;;20.87;62.99
61710;BME280;47633;51.494;5.386;2023-10-13T02:25:17;100980.09;;;20.87;63.20
61710;BME280;47633;51.494;5.386;2023-10-13T02:28:00;100972.13;;;20.87;63.24
61710;BME280;47633;51.494;5.386;2023-10-13T02:30:25;100965.16;;;20.86;62.93
61710;BME280;47633;51.494;5.386;2023-10-13T02:32:54;100964.31;;;20.86;63.06
61710;BME280;47633;51.494;5.386;2023-10-13T02:35:20;100961.69;;;20.86;62.92
61710;BME280;47633;51.494;5.386;2023-10-13T02:37:55;100956.38;;;20.86;63.17
61710;BME280;47633;51.494;5.386;2023-10-13T02:40:22;100959.84;;;20.86;62.96
61710;BME280;47633;51.494;5.386;2023-10-13T02:42:49;100946.59;;;20.86;62.89
61710;BME280;47633;51.494;5.386;2023-10-13T02:45:14;100931.69;;;20.85;63.02
61710;BME280;47633;51.494;5.386;2023-10-13T02:47:40;100926.38;;;20.85;63.02
61710;BME280;47633;51.494;5.386;2023-10-13T02:50:08;100922.91;;;20.84;63.24
61710;BME280;47633;51.494;5.386;2023-10-13T02:52:37;100914.13;;;20.84;62.89
61710;BME280;47633;51.494;5.386;2023-10-13T02:55:07;100900.03;;;20.83;62.83
61710;BME280;47633;51.494;5.386;2023-10-13T02:57:35;100900.75;;;20.86;63.14
61710;BME280;47633;51.494;5.386;2023-10-13T03:00:00;100907.03;;;20.84;63.01
61710;BME280;47633;51.494;5.386;2023-10-13T03:02:37;100900.75;;;20.86;63.13
61710;BME280;47633;51.494;5.386;2023-10-13T03:05:09;100890.16;;;20.86;62.97
61710;BME280;47633;51.494;5.386;2023-10-13T03:07:35;100875.22;;;20.84;63.36
61710;BME280;47633;51.494;5.386;2023-10-13T03:10:02;100877.88;;;20.84;63.25
61710;BME280;47633;51.494;5.386;2023-10-13T03:12:37;100866.59;;;20.82;63.17
61710;BME280;47633;51.494;5.386;2023-10-13T03:15:03;100862.94;;;20.83;63.19
61710;BME280;47633;51.494;5.386;2023-10-13T03:17:40;100863.94;;;20.82;63.30
61710;BME280;47633;51.494;5.386;2023-10-13T03:20:14;100854.31;;;20.81;62.89
61710;BME280;47633;51.494;5.386;2023-10-13T03:22:44;100847.19;;;20.82;63.00
61710;BME280;47633;51.494;5.386;2023-10-13T03:25:13;100851.53;;;20.83;62.88
61710;BME280;47633;51.494;5.386;2023-10-13T03:27:43;100853.22;;;20.84;62.81
61710;BME280;47633;51.494;5.386;2023-10-13T03:30:18;100837.31;;;20.84;63.05
61710;BME280;47633;51.494;5.386;2023-10-13T03:32:43;100825.06;;;20.83;63.00
61710;BME280;47633;51.494;5.386;2023-10-13T03:35:11;100817.25;;;20.81;63.33
61710;BME280;47633;51.494;5.386;2023-10-13T03:37:42;100818.94;;;20.82;63.06
61710;BME280;47633;51.494;5.386;2023-10-13T03:40:09;100819.75;;;20.83;63.03
61710;BME280;47633;51.494;5.386;2023-10-13T03:42:48;100815.41;;;20.82;63.09
61710;BME280;47633;51.494;5.386;2023-10-13T03:45:40;100804.41;;;20.87;63.07
61710;BME280;47633;51.494;5.386;2023-10-13T03:48:11;100796.59;;;20.85;63.08
61710;BME280;47633;51.494;5.386;2023-10-13T03:50:46;100798.41;;;20.84;63.27
61710;BME280;47633;51.494;5.386;2023-10-13T03:53:13;100792.44;;;20.82;63.28
61710;BME280;47633;51.494;5.386;2023-10-13T03:55:39;100791.59;;;20.82;63.54
61710;BME280;47633;51.494;5.386;2023-10-13T03:58:06;100785.47;;;20.81;63.08
61710;BME280;47633;51.494;5.386;2023-10-13T04:00:32;100781.00;;;20.82;63.25
61710;BME280;47633;51.494;5.386;2023-10-13T04:02:58;100769.56;;;20.81;63.18
61710;BME280;47633;51.494;5.386;2023-10-13T04:05:34;100759.94;;;20.80;63.39
61710;BME280;47633;51.494;5.386;2023-10-13T04:08:03;100760.81;;;20.81;63.39
61710;BME280;47633;51.494;5.386;2023-10-13T04:10:47;100756.19;;;20.83;63.31
61710;BME280;47633;51.494;5.386;2023-10-13T04:13:19;100744.91;;;20.81;63.57
61710;BME280;47633;51.494;5.386;2023-10-13T04:16:09;100746.84;;;20.79;63.57
61710;BME280;47633;51.494;5.386;2023-10-13T04:18:46;100747.56;;;20.81;63.60
61710;BME280;47633;51.494;5.386;2023-10-13T04:21:17;100745.88;;;20.80;63.20
61710;BME280;47633;51.494;5.386;2023-10-13T04:24:01;100743.22;;;20.80;63.63
61710;BME280;47633;51.494;5.386;2023-10-13T04:26:45;100746.56;;;20.82;63.49
61710;BME280;47633;51.494;5.386;2023-10-13T04:29:31;100750.22;;;20.81;63.49
61710;BME280;47633;51.494;5.386;2023-10-13T04:32:16;100751.03;;;20.81;63.38
61710;BME280;47633;51.494;5.386;2023-10-13T04:34:53;100748.38;;;20.81;63.44
61710;BME280;47633;51.494;5.386;2023-10-13T04:37:23;100752.00;;;20.80;63.40
61710;BME280;47633;51.494;5.386;2023-10-13T04:39:57;100749.50;;;20.79;63.43
61710;BME280;47633;51.494;5.386;2023-10-13T04:42:35;100741.56;;;20.79;63.75
61710;BME280;47633;51.494;5.386;2023-10-13T04:45:20;100739.63;;;20.81;63.81
61710;BME280;47633;51.494;5.386;2023-10-13T04:47:59;100738.06;;;20.78;63.47
61710;BME280;47633;51.494;5.386;2023-10-13T04:51:00;100744.06;;;20.80;63.78
61710;BME280;47633;51.494;5.386;2023-10-13T04:53:46;100739.75;;;20.79;63.65
61710;BME280;47633;51.494;5.386;2023-10-13T04:56:29;100745.72;;;20.81;63.49
61710;BME280;47633;51.494;5.386;2023-10-13T04:59:23;100735.97;;;20.82;63.48
61710;BME280;47633;51.494;5.386;2023-10-13T05:02:02;100741.56;;;20.79;63.50
61710;BME280;47633;51.494;5.386;2023-10-13T05:04:46;100731.66;;;20.81;63.60
61710;BME280;47633;51.494;5.386;2023-10-13T05:07:30;100724.69;;;20.80;63.73
61710;BME280;47633;51.494;5.386;2023-10-13T05:10:14;100708.81;;;20.80;63.91
61710;BME280;47633;51.494;5.386;2023-10-13T05:12:58;100703.50;;;20.80;63.96
61710;BME280;47633;51.494;5.386;2023-10-13T05:15:50;100699.16;;;20.79;63.65
61710;BME280;47633;51.494;5.386;2023-10-13T05:18:35;100675.47;;;20.77;63.80
61710;BME280;47633;51.494;5.386;2023-10-13T05:21:20;100667.41;;;20.79;63.99
61710;BME280;47633;51.494;5.386;2023-10-13T05:24:04;100667.97;;;20.82;63.72
61710;BME280;47633;51.494;5.386;2023-10-13T05:26:47;100656.50;;;20.82;63.78
61710;BME280;47633;51.494;5.386;2023-10-13T05:29:32;100665.44;;;20.81;63.74
61710;BME280;47633;51.494;5.386;2023-10-13T05:32:16;100662.09;;;20.79;64.12
61710;BME280;47633;51.494;5.386;2023-10-13T05:35:00;100664.06;;;20.77;63.68
61710;BME280;47633;51.494;5.386;2023-10-13T05:37:44;100663.09;;;20.78;63.94
61710;BME280;47633;51.494;5.386;2023-10-13T05:40:28;100663.09;;;20.78;63.66
61710;BME280;47633;51.494;5.386;2023-10-13T05:43:12;100655.69;;;20.81;64.05
61710;BME280;47633;51.494;5.386;2023-10-13T05:46:01;100649.56;;;20.81;63.74
61710;BME280;47633;51.494;5.386;2023-10-13T05:48:45;100645.38;;;20.78;63.65
61710;BME280;47633;51.494;5.386;2023-10-13T05:51:23;100637.59;;;20.77;64.02
61710;BME280;47633;51.494;5.386;2023-10-13T05:54:09;100644.56;;;20.78;63.68
61710;BME280;47633;51.494;5.386;2023-10-13T05:56:47;100650.81;;;20.77;63.83
61710;BME280;47633;51.494;5.386;2023-10-13T05:59:33;100634.13;;;20.76;63.75
61710;BME280;47633;51.494;5.386;2023-10-13T06:02:18;100639.25;;;20.78;63.89
61710;BME280;47633;51.494;5.386;2023-10-13T06:05:07;100637.06;;;20.73;64.07
61710;BME280;47633;51.494;5.386;2023-10-13T06:07:52;100645.53;;;20.77;63.83
61710;BME280;47633;51.494;5.386;2023-10-13T06:10:37;100634.94;;;20.77;63.94
61710;BME280;47633;51.494;5.386;2023-10-13T06:13:21;100632.28;;;20.77;64.35
61710;BME280;47633;51.494;5.386;2023-10-13T06:16:12;100634.94;;;20.77;64.18
61710;BME280;47633;51.494;5.386;2023-10-13T06:18:57;100632.28;;;20.77;64.17
61710;BME280;47633;51.494;5.386;2023-10-13T06:21:40;100636.63;;;20.78;64.29
61710;BME280;47633;51.494;5.386;2023-10-13T06:24:25;100631.31;;;20.78;64.14
61710;BME280;47633;51.494;5.386;2023-10-13T06:27:08;100630.47;;;20.77;63.94
61710;BME280;47633;51.494;5.386;2023-10-13T06:29:52;100631.31;;;20.78;63.73
61710;BME280;47633;51.494;5.386;2023-10-13T06:32:21;100626.16;;;20.76;64.05
61710;BME280;47633;51.494;5.386;2023-10-13T06:34:52;100621.03;;;20.75;64.32
61710;BME280;47633;51.494;5.386;2023-10-13T06:37:25;100621.03;;;20.75;64.50
61710;BME280;47633;51.494;5.386;2023-10-13T06:39:52;100613.06;;;20.75;64.20
61710;BME280;47633;51.494;5.386;2023-10-13T06:42:27;100605.13;;;20.75;63.75
61710;BME280;47633;51.494;5.386;2023-10-13T06:44:53;100601.47;;;20.76;64.44
61710;BME280;47633;51.494;5.386;2023-10-13T06:47:20;100594.53;;;20.75;64.35
61710;BME280;47633;51.494;5.386;2023-10-13T06:49:46;100591.75;;;20.76;64.02
61710;BME280;47633;51.494;5.386;2023-10-13T06:52:13;100586.44;;;20.76;64.24
61710;BME280;47633;51.494;5.386;2023-10-13T06:54:39;100585.59;;;20.76;64.30
61710;BME280;47633;51.494;5.386;2023-10-13T06:57:06;100595.06;;;20.78;64.27
61710;BME280;47633;51.494;5.386;2023-10-13T06:59:35;100593.09;;;20.80;64.40
61710;BME280;47633;51.494;5.386;2023-10-13T07:02:02;100583.34;;;20.81;64.09
61710;BME280;47633;51.494;5.386;2023-10-13T07:04:30;100579.84;;;20.80;64.61
61710;BME280;47633;51.494;5.386;2023-10-13T07:06:55;100577.19;;;20.80;64.35
61710;BME280;47633;51.494;5.386;2023-10-13T07:09:21;100567.47;;;20.81;64.49
61710;BME280;47633;51.494;5.386;2023-10-13T07:12:05;100566.59;;;20.80;64.68
61710;BME280;47633;51.494;5.386;2023-10-13T07:14:50;100556.88;;;20.81;64.55
61710;BME280;47633;51.494;5.386;2023-10-13T07:17:20;100560.50;;;20.80;64.67
61710;BME280;47633;51.494;5.386;2023-10-13T07:19:52;100555.19;;;20.80;64.47
61710;BME280;47633;51.494;5.386;2023-10-13T07:22:24;100544.31;;;20.83;64.85
61710;BME280;47633;51.494;5.386;2023-10-13T07:24:52;100542.78;;;20.80;64.89
61710;BME280;47633;51.494;5.386;2023-10-13T07:27:22;100557.69;;;20.81;64.86
61710;BME280;47633;51.494;5.386;2023-10-13T07:29:56;100544.59;;;20.80;64.96
61710;BME280;47633;51.494;5.386;2023-10-13T07:32:31;100541.81;;;20.81;64.65
61710;BME280;47633;51.494;5.386;2023-10-13T07:34:59;100546.94;;;20.83;65.06
61710;BME280;47633;51.494;5.386;2023-10-13T07:37:34;100549.59;;;20.83;64.66
61710;BME280;47633;51.494;5.386;2023-10-13T07:40:00;100547.63;;;20.85;64.95
61710;BME280;47633;51.494;5.386;2023-10-13T07:42:26;100546.66;;;20.86;64.70
61710;BME280;47633;51.494;5.386;2023-10-13T07:45:05;100536.06;;;20.86;65.19
61710;BME280;47633;51.494;5.386;2023-10-13T07:47:30;100535.22;;;20.86;64.67
61710;BME280;47633;51.494;5.386;2023-10-13T07:49:58;100539.00;;;20.83;65.25
61710;BME280;47633;51.494;5.386;2023-10-13T07:52:23;100538.72;;;20.86;65.07
61710;BME280;47633;51.494;5.386;2023-10-13T07:55:01;100531.44;;;20.88;65.13
61710;BME280;47633;51.494;5.386;2023-10-13T07:57:35;100524.34;;;20.89;64.98
61710;BME280;47633;51.494;5.386;2023-10-13T08:00:01;100525.16;;;20.89;65.13
61710;BME280;47633;51.494;5.386;2023-10-13T08:02:58;100519.03;;;20.89;64.75
61710;BME280;47633;51.494;5.386;2023-10-13T08:05:45;100519.88;;;20.89;65.17
61710;BME280;47633;51.494;5.386;2023-10-13T08:08:29;100525.84;;;20.91;64.78
61710;BME280;47633;51.494;5.386;2023-10-13T08:11:07;100518.19;;;20.88;65.02
61710;BME280;47633;51.494;5.386;2023-10-13T08:13:59;100519.88;;;20.89;65.11
61710;BME280;47633;51.494;5.386;2023-10-13T08:16:29;100505.94;;;20.87;65.04
61710;BME280;47633;51.494;5.386;2023-10-13T08:19:19;100510.41;;;20.87;64.69
61710;BME280;47633;51.494;5.386;2023-10-13T08:21:47;100507.75;;;20.87;64.85
61710;BME280;47633;51.494;5.386;2023-10-13T08:24:23;100489.34;;;20.85;64.99
61710;BME280;47633;51.494;5.386;2023-10-13T08:27:03;100501.63;;;20.86;65.17
61710;BME280;47633;51.494;5.386;2023-10-13T08:29:48;100508.75;;;20.86;65.12
61710;BME280;47633;51.494;5.386;2023-10-13T08:32:27;100514.78;;;20.78;65.41
61710;BME280;47633;51.494;5.386;2023-10-13T08:34:54;100509.13;;;20.63;66.09
61710;BME280;47633;51.494;5.386;2023-10-13T08:37:20;100500.44;;;20.53;66.26
61710;BME280;47633;51.494;5.386;2023-10-13T08:39:47;100486.09;;;20.45;66.94
61710;BME280;47633;51.494;5.386;2023-10-13T08:42:32;100497.00;;;20.42;67.27
61710;BME280;47633;51.494;5.386;2023-10-13T08:45:16;100487.41;;;20.41;67.08
61710;BME280;47633;51.494;5.386;2023-10-13T08:47:56;100519.97;;;20.42;67.01
61710;BME280;47633;51.494;5.386;2023-10-13T08:50:36;100501.59;;;20.40;67.08
61710;BME280;47633;51.494;5.386;2023-10-13T08:58:43;100494.91;;;20.46;67.10
61710;BME280;47633;51.494;5.386;2023-10-13T09:01:18;100485.13;;;20.46;67.22
61710;BME280;47633;51.494;5.386;2023-10-13T09:04:29;100480.66;;;20.47;67.16
61710;BME280;47633;51.494;5.386;2023-10-13T09:07:05;100479.03;;;20.46;67.16
61710;BME280;47633;51.494;5.386;2023-10-13T09:14:43;100467.13;;;20.50;67.24
61710;BME280;47633;51.494;5.386;2023-10-13T09:17:23;100469.63;;;20.52;66.52
61710;BME280;47633;51.494;5.386;2023-10-13T09:22:54;100480.38;;;20.50;66.75
61710;BME280;47633;51.494;5.386;2023-10-13T09:25:32;100473.13;;;20.52;67.04
61710;BME280;47633;51.494;5.386;2023-10-13T09:28:11;100473.28;;;20.51;66.86
61710;BME280;47633;51.494;5.386;2023-10-13T09:30:49;100468.81;;;20.51;66.54
61710;BME280;47633;51.494;5.386;2023-10-13T09:36:04;100468.81;;;20.51;66.61
61710;BME280;47633;51.494;5.386;2023-10-13T09:38:38;100455.28;;;20.54;66.46
61710;BME280;47633;51.494;5.386;2023-10-13T09:41:06;100456.09;;;20.55;66.72
61710;BME280;47633;51.494;5.386;2023-10-13T09:43:43;100455.13;;;20.56;66.60
61710;BME280;47633;51.494;5.386;2023-10-13T09:46:10;100453.44;;;20.55;66.39
61710;BME280;47633;51.494;5.386;2023-10-13T09:48:47;100451.63;;;20.55;66.23
61710;BME280;47633;51.494;5.386;2023-10-13T09:51:14;100443.53;;;20.57;66.15
61710;BME280;47633;51.494;5.386;2023-10-13T09:53:44;100433.94;;;20.56;66.09
61710;BME280;47633;51.494;5.386;2023-10-13T09:56:18;100445.22;;;20.58;66.25
61710;BME280;47633;51.494;5.386;2023-10-13T09:59:11;100434.78;;;20.56;66.28
61710;BME280;47633;51.494;5.386;2023-10-13T10:01:43;100432.94;;;20.57;66.72
61710;BME280;47633;51.494;5.386;2023-10-13T10:04:16;100428.22;;;20.60;66.40
61710;BME280;47633;51.494;5.386;2023-10-13T10:06:56;100416.25;;;20.56;66.55
61710;BME280;47633;51.494;5.386;2023-10-13T10:09:29;100416.91;;;20.58;66.22
61710;BME280;47633;51.494;5.386;2023-10-13T10:12:46;100410.50;;;20.61;66.49
61710;BME280;47633;51.494;5.386;2023-10-13T10:17:53;100412.88;;;20.64;65.91
61710;BME280;47633;51.494;5.386;2023-10-13T10:20:36;100411.91;;;20.65;65.98
61710;BME280;47633;51.494;5.386;2023-10-13T10:23:09;100403.81;;;20.67;66.16
61710;BME280;47633;51.494;5.386;2023-10-13T10:25:48;100423.00;;;20.69;66.10
61710;BME280;47633;51.494;5.386;2023-10-13T10:28:16;100406.47;;;20.67;66.23
61710;BME280;47633;51.494;5.386;2023-10-13T10:30:42;100394.72;;;20.69;66.39
61710;BME280;47633;51.494;5.386;2023-10-13T10:33:10;100380.19;;;20.73;66.30
61710;BME280;47633;51.494;5.386;2023-10-13T10:35:39;100398.03;;;20.89;65.68
61710;BME280;47633;51.494;5.386;2023-10-13T10:38:13;100395.81;;;21.02;65.36
61710;BME280;47633;51.494;5.386;2023-10-13T10:40:55;100397.38;;;21.13;64.55
61710;BME280;47633;51.494;5.386;2023-10-13T10:43:27;100405.84;;;21.17;64.40
61710;BME280;47633;51.494;5.386;2023-10-13T10:45:55;100415.47;;;21.18;64.25
61710;BME280;47633;51.494;5.386;2023-10-13T10:48:26;100399.25;;;21.21;64.56
61710;BME280;47633;51.494;5.386;2023-10-13T10:50:57;100401.75;;;21.23;64.37
61710;BME280;47633;51.494;5.386;2023-10-13T10:53:24;100394.94;;;21.20;64.48
61710;BME280;47633;51.494;5.386;2023-10-13T10:56:08;100394.94;;;21.20;64.85
61710;BME280;47633;51.494;5.386;2023-10-13T10:58:48;100393.44;;;21.17;64.75
61710;BME280;47633;51.494;5.386;2023-10-13T11:01:14;100396.75;;;21.19;64.54
61710;BME280;47633;51.494;5.386;2023-10-13T11:03:56;100400.22;;;21.20;64.75
61710;BME280;47633;51.494;5.386;2023-10-13T11:06:26;100408.19;;;21.20;64.79
61710;BME280;47633;51.494;5.386;2023-10-13T11:09:06;100391.63;;;21.18;64.73
61710;BME280;47633;51.494;5.386;2023-10-13T11:11:45;100393.94;;;21.21;64.92
61710;BME280;47633;51.494;5.386;2023-10-13T11:14:20;100385.34;;;21.19;64.34
61710;BME280;47633;51.494;5.386;2023-10-13T11:16:49;100375.72;;;21.18;64.57
61710;BME280;47633;51.494;5.386;2023-10-13T11:19:19;100374.88;;;21.17;64.51
61710;BME280;47633;51.494;5.386;2023-10-13T11:21:54;100364.44;;;21.16;64.45
61710;BME280;47633;51.494;5.386;2023-10-13T11:24:20;100367.09;;;21.16;64.46
61710;BME280;47633;51.494;5.386;2023-10-13T11:26:47;100358.13;;;21.17;64.22
61710;BME280;47633;51.494;5.386;2023-10-13T11:29:16;100340.28;;;21.19;64.38
61710;BME280;47633;51.494;5.386;2023-10-13T11:31:47;100338.47;;;21.19;64.26
61710;BME280;47633;51.494;5.386;2023-10-13T11:34:23;100332.19;;;21.20;64.12
61710;BME280;47633;51.494;5.386;2023-10-13T11:36:48;100322.25;;;21.23;63.99
61710;BME280;47633;51.494;5.386;2023-10-13T11:39:13;100326.72;;;21.22;64.03
61710;BME280;47633;51.494;5.386;2023-10-13T11:41:48;100316.94;;;21.23;63.96
61710;BME280;47633;51.494;5.386;2023-10-13T11:44:20;100303.84;;;21.21;64.08
61710;BME280;47633;51.494;5.386;2023-10-13T11:46:46;100307.47;;;21.20;64.56
61710;BME280;47633;51.494;5.386;2023-10-13T11:49:14;100304.00;;;21.19;64.24
61710;BME280;47633;51.494;5.386;2023-10-13T11:51:46;100303.03;;;21.20;64.31
61710;BME280;47633;51.494;5.386;2023-10-13T11:54:18;100304.00;;;21.19;64.06
61710;BME280;47633;51.494;5.386;2023-10-13T11:56:45;100304.69;;;21.22;64.35
61710;BME280;47633;51.494;5.386;2023-10-13T11:59:11;100309.97;;;21.22;64.71
61710;BME280;47633;51.494;5.386;2023-10-13T12:01:48;100301.19;;;21.21;64.29
61710;BME280;47633;51.494;5.386;2023-10-13T12:04:33;100290.44;;;21.23;64.53
61710;BME280;47633;51.494;5.386;2023-10-13T12:07:07;100285.66;;;21.26;64.32
61710;BME280;47633;51.494;5.386;2023-10-13T12:09:48;100273.38;;;21.25;64.39
61710;BME280;47633;51.494;5.386;2023-10-13T12:12:20;100268.78;;;21.27;64.15
61710;BME280;47633;51.494;5.386;2023-10-13T12:14:45;100281.72;;;21.30;64.41
61710;BME280;47633;51.494;5.386;2023-10-13T12:17:27;100281.00;;;21.28;64.61
61710;BME280;47633;51.494;5.386;2023-10-13T12:20:02;100271.72;;;21.16;65.50
61710;BME280;47633;51.494;5.386;2023-10-13T12:22:35;100275.53;;;21.22;65.00
61710;BME280;47633;51.494;5.386;2023-10-13T12:25:01;100281.50;;;21.24;64.93
61710;BME280;47633;51.494;5.386;2023-10-13T12:27:30;100280.34;;;21.26;65.01
61710;BME280;47633;51.494;5.386;2023-10-13T12:30:11;100279.22;;;21.29;64.39
61710;BME280;47633;51.494;5.386;2023-10-13T12:32:39;100280.03;;;21.29;64.21
61710;BME280;47633;51.494;5.386;2023-10-13T12:35:10;100264.22;;;21.11;65.23
61710;BME280;47633;51.494;5.386;2023-10-13T12:37:36;100269.97;;;20.98;66.10
61710;BME280;47633;51.494;5.386;2023-10-13T12:40:13;100272.38;;;20.92;66.05
61710;BME280;47633;51.494;5.386;2023-10-13T12:42:57;100269.22;;;20.88;66.02
61710;BME280;47633;51.494;5.386;2023-10-13T12:45:42;100272.72;;;20.89;66.43
61710;BME280;47633;51.494;5.386;2023-10-13T12:48:27;100259.94;;;20.84;66.39
61710;BME280;47633;51.494;5.386;2023-10-13T12:51:12;100253.66;;;20.85;66.96
61710;BME280;47633;51.494;5.386;2023-10-13T12:53:56;100254.66;;;20.84;66.48
61710;BME280;47633;51.494;5.386;2023-10-13T12:56:30;100267.75;;;20.86;66.55
61710;BME280;47633;51.494;5.386;2023-10-13T12:58:56;100261.75;;;20.83;66.27
61710;BME280;47633;51.494;5.386;2023-10-13T13:01:23;100263.56;;;20.83;66.17
61710;BME280;47633;51.494;5.386;2023-10-13T13:03:51;100263.41;;;20.84;66.10
61710;BME280;47633;51.494;5.386;2023-10-13T13:06:22;100261.91;;;20.82;65.99
61710;BME280;47633;51.494;5.386;2023-10-13T13:11:16;100246.00;;;20.82;66.28
61710;BME280;47633;51.494;5.386;2023-10-13T13:13:42;100246.72;;;20.84;65.83
61710;BME280;47633;51.494;5.386;2023-10-13T13:16:07;100244.06;;;20.84;65.99
61710;BME280;47633;51.494;5.386;2023-10-13T13:18:33;100261.75;;;20.83;65.90
61710;BME280;47633;51.494;5.386;2023-10-13T13:20:59;100250.19;;;20.84;65.67
61710;BME280;47633;51.494;5.386;2023-10-13T13:23:25;100245.84;;;20.83;66.08
61710;BME280;47633;51.494;5.386;2023-10-13T13:25:51;100251.16;;;20.83;65.76
61710;BME280;47633;51.494;5.386;2023-10-13T13:28:17;100243.22;;;20.83;65.94
61710;BME280;47633;51.494;5.386;2023-10-13T13:30:43;100232.78;;;20.82;65.95
61710;BME280;47633;51.494;5.386;2023-10-13T13:33:08;100244.41;;;20.89;65.79
61710;BME280;47633;51.494;5.386;2023-10-13T13:35:40;100251.78;;;21.04;65.29
61710;BME280;47633;51.494;5.386;2023-10-13T13:38:08;100258.47;;;21.16;64.73
61710;BME280;47633;51.494;5.386;2023-10-13T13:40:52;100254.81;;;21.25;64.46
61710;BME280;47633;51.494;5.386;2023-10-13T13:43:20;100250.53;;;21.24;64.24
61710;BME280;47633;51.494;5.386;2023-10-13T13:46:06;100242.91;;;21.21;63.93
61710;BME280;47633;51.494;5.386;2023-10-13T13:48:36;100242.28;;;21.27;63.99